Time;durP1;ratioP1;P1;durP2;ratioP2;P2;SDS_P1;SDS_P2;PMS_P1;PMS_P2;Temp;Humidity;BMP_temperature;BMP_pressure;BME280_temperature;BME280_humidity;BME280_pressure;Samples;Min_cycle;Max_cycle;Signal;HPM_P1;HPM_P2
2021/11/22 00:01:07;;;;;;;15.20;10.68;;;4.20;99.90;;;;;;5045260;28;20215;-66
2021/11/22 00:03:34;;;;;;;18.17;11.60;;;4.20;99.90;;;;;;5045636;28;20212;-66
2021/11/22 00:06:01;;;;;;;17.58;13.80;;;4.10;99.90;;;;;;5045616;28;20212;-66
2021/11/22 00:08:28;;;;;;;17.08;12.75;;;4.20;99.90;;;;;;5045615;28;20228;-66
2021/11/22 00:10:54;;;;;;;19.27;12.30;;;4.10;99.90;;;;;;5045664;28;20197;-66
2021/11/22 00:13:21;;;;;;;20.48;12.80;;;4.10;99.90;;;;;;5045767;28;20221;-65
2021/11/22 00:15:48;;;;;;;19.95;12.82;;;4.20;99.90;;;;;;5045693;28;20215;-64
2021/11/22 00:18:16;;;;;;;16.88;12.38;;;4.20;99.90;;;;;;5045935;28;20221;-66
2021/11/22 00:20:44;;;;;;;18.10;12.25;;;4.10;99.90;;;;;;5045504;28;20199;-65
2021/11/22 00:23:10;;;;;;;21.23;13.60;;;4.10;99.90;;;;;;5045926;28;20208;-65
2021/11/22 00:25:37;;;;;;;20.88;13.68;;;4.10;99.90;;;;;;5045837;28;20433;-66
2021/11/22 00:28:04;;;;;;;17.02;12.32;;;4.10;99.90;;;;;;5045975;28;21023;-65
2021/11/22 00:30:31;;;;;;;22.48;14.20;;;4.10;99.90;;;;;;5045479;28;20208;-66
2021/11/22 00:33:00;;;;;;;18.65;12.38;;;4.10;99.90;;;;;;5044304;28;20619;-65
2021/11/22 00:35:32;;;;;;;21.00;12.93;;;4.10;99.90;;;;;;5045360;28;20232;-66
2021/11/22 00:38:00;;;;;;;15.77;11.98;;;4.10;99.90;;;;;;5044740;28;20228;-66
2021/11/22 00:40:28;;;;;;;17.77;12.63;;;4.10;99.90;;;;;;5045171;28;20299;-66
2021/11/22 00:42:56;;;;;;;18.42;13.02;;;4.10;99.90;;;;;;5044579;28;20205;-65
2021/11/22 00:45:22;;;;;;;20.20;12.13;;;4.20;99.90;;;;;;5045442;28;20292;-65
2021/11/22 00:47:50;;;;;;;17.67;12.45;;;4.20;99.90;;;;;;5044457;28;20235;-66
2021/11/22 00:50:17;;;;;;;19.23;13.20;;;4.20;99.90;;;;;;5045255;28;20209;-66
2021/11/22 00:52:45;;;;;;;19.23;13.57;;;4.20;99.90;;;;;;5044867;28;20236;-66
2021/11/22 00:55:12;;;;;;;21.95;13.13;;;4.20;99.90;;;;;;5044499;28;20572;-66
2021/11/22 00:57:39;;;;;;;17.80;12.48;;;4.20;99.90;;;;;;5044944;28;20627;-65
2021/11/22 01:00:08;;;;;;;21.90;13.82;;;4.20;99.90;;;;;;5044529;28;20208;-64
2021/11/22 01:02:35;;;;;;;16.85;12.57;;;4.10;99.90;;;;;;5044404;28;20747;-66
2021/11/22 01:05:02;;;;;;;22.75;13.82;;;4.20;99.90;;;;;;5044606;28;20205;-66
2021/11/22 01:07:29;;;;;;;20.05;13.32;;;4.20;99.90;;;;;;5045302;28;20814;-66
2021/11/22 01:09:57;;;;;;;18.17;12.63;;;4.10;99.90;;;;;;5044793;28;20370;-66
2021/11/22 01:12:27;;;;;;;19.88;12.80;;;4.10;99.90;;;;;;5044777;28;20348;-65
2021/11/22 01:14:54;;;;;;;20.40;13.73;;;4.20;99.90;;;;;;5045329;28;20201;-64
2021/11/22 01:17:21;;;;;;;19.50;14.68;;;4.10;99.90;;;;;;5046991;28;20236;-66
2021/11/22 01:19:51;;;;;;;22.10;13.85;;;4.20;99.90;;;;;;5048994;28;20578;-65
2021/11/22 01:22:18;;;;;;;21.25;13.55;;;4.20;99.90;;;;;;5048325;28;20205;-65
2021/11/22 01:24:45;;;;;;;20.98;14.48;;;4.20;99.90;;;;;;5049069;28;20209;-65
2021/11/22 01:27:13;;;;;;;18.85;13.00;;;4.20;99.90;;;;;;5048816;28;20735;-65
2021/11/22 01:29:40;;;;;;;19.30;12.63;;;4.20;99.90;;;;;;5048679;28;20201;-66
2021/11/22 01:32:07;;;;;;;20.50;13.63;;;4.20;99.90;;;;;;5048264;28;20691;-65
2021/11/22 01:34:33;;;;;;;22.25;14.07;;;4.20;99.90;;;;;;5058627;28;20216;-66
2021/11/22 01:37:00;;;;;;;17.77;13.27;;;4.20;99.90;;;;;;5068724;28;20232;-66
2021/11/22 01:39:27;;;;;;;19.08;12.70;;;4.20;99.90;;;;;;5069228;28;20200;-66
2021/11/22 01:41:53;;;;;;;19.52;13.95;;;4.20;99.90;;;;;;5068676;28;20695;-66
2021/11/22 01:44:21;;;;;;;19.20;12.75;;;4.20;99.90;;;;;;5069005;28;20200;-65
2021/11/22 01:46:49;;;;;;;21.55;13.13;;;4.30;99.90;;;;;;5067683;28;20911;-65
2021/11/22 01:49:16;;;;;;;21.13;12.68;;;4.20;99.90;;;;;;5068629;28;20211;-65
2021/11/22 01:51:44;;;;;;;17.17;12.60;;;4.20;99.90;;;;;;5068130;28;20227;-65
2021/11/22 01:54:12;;;;;;;16.35;12.02;;;4.20;99.90;;;;;;5068499;28;20228;-66
2021/11/22 01:56:38;;;;;;;16.67;12.18;;;4.20;99.90;;;;;;5068450;28;20224;-65
2021/11/22 01:59:05;;;;;;;20.52;11.95;;;4.20;99.90;;;;;;5068466;28;20258;-65
2021/11/22 02:01:33;;;;;;;21.83;14.10;;;4.20;99.90;;;;;;5068474;28;20200;-66
2021/11/22 02:04:00;;;;;;;17.90;13.77;;;4.20;99.90;;;;;;5067757;28;20205;-65
2021/11/22 02:06:27;;;;;;;17.33;12.82;;;4.20;99.90;;;;;;5068507;28;20204;-65
2021/11/22 02:08:53;;;;;;;15.15;11.32;;;4.20;99.90;;;;;;5067701;28;20216;-65
2021/11/22 02:11:20;;;;;;;17.35;12.13;;;4.20;99.90;;;;;;5067509;28;20205;-66
2021/11/22 02:13:47;;;;;;;15.45;11.43;;;4.20;99.90;;;;;;5067736;28;20220;-65
2021/11/22 02:16:14;;;;;;;17.45;12.20;;;4.20;99.90;;;;;;5067988;28;20690;-66
2021/11/22 02:18:44;;;;;;;18.73;13.23;;;4.20;99.90;;;;;;5067979;28;20231;-66
2021/11/22 02:21:12;;;;;;;15.93;11.32;;;4.20;99.90;;;;;;5067462;28;20222;-66
2021/11/22 02:23:39;;;;;;;18.27;12.65;;;4.20;99.90;;;;;;5068112;28;20267;-66
2021/11/22 02:26:06;;;;;;;16.50;12.00;;;4.20;99.90;;;;;;5067404;28;20203;-66
2021/11/22 02:28:33;;;;;;;18.98;13.55;;;4.20;99.90;;;;;;5138116;22;20220;-72
2021/11/22 02:30:59;;;;;;;21.25;12.93;;;4.20;99.90;;;;;;5065761;28;20203;-72
2021/11/22 02:33:27;;;;;;;17.58;12.82;;;4.20;99.90;;;;;;5071382;28;20274;-71
2021/11/22 02:35:57;;;;;;;20.60;12.50;;;4.20;99.90;;;;;;5072476;28;20620;-71
2021/11/22 02:38:27;;;;;;;20.30;13.15;;;4.20;99.90;;;;;;5053924;28;20267;-71
2021/11/22 02:40:54;;;;;;;18.88;13.68;;;4.20;99.90;;;;;;5051827;28;20582;-70
2021/11/22 02:43:21;;;;;;;20.10;12.85;;;4.20;99.90;;;;;;5051581;28;20193;-71
2021/11/22 02:45:48;;;;;;;22.73;13.50;;;4.20;99.90;;;;;;5051640;28;20669;-71
2021/11/22 02:48:14;;;;;;;21.40;13.40;;;4.20;99.90;;;;;;5051698;28;20224;-71
2021/11/22 02:50:41;;;;;;;23.20;13.82;;;4.20;99.90;;;;;;5051842;28;20755;-71
2021/11/22 02:53:08;;;;;;;22.20;14.05;;;4.20;99.90;;;;;;5051369;28;20208;-71
2021/11/22 02:55:36;;;;;;;19.15;12.70;;;4.10;99.90;;;;;;5051598;28;20233;-71
2021/11/22 02:58:03;;;;;;;19.58;13.23;;;4.10;99.90;;;;;;5051603;28;20221;-71
2021/11/22 03:00:32;;;;;;;20.45;14.07;;;4.10;99.90;;;;;;5051609;28;20205;-71
2021/11/22 03:02:59;;;;;;;19.83;12.85;;;4.20;99.90;;;;;;5051045;28;20204;-71
2021/11/22 03:05:26;;;;;;;19.77;13.75;;;4.20;99.90;;;;;;5051625;28;20200;-71
2021/11/22 03:07:57;;;;;;;20.15;12.98;;;4.20;99.90;;;;;;5051430;28;20700;-71
2021/11/22 03:10:28;;;;;;;20.52;12.85;;;4.20;99.90;;;;;;5051616;28;20209;-71
2021/11/22 03:12:57;;;;;;;21.88;12.90;;;4.20;99.90;;;;;;5050735;28;20204;-71
2021/11/22 03:15:24;;;;;;;18.17;12.75;;;4.20;99.90;;;;;;5051461;28;20227;-71
2021/11/22 03:17:51;;;;;;;22.80;14.02;;;4.20;99.90;;;;;;5050877;28;20228;-71
2021/11/22 03:20:19;;;;;;;20.90;13.07;;;4.20;99.90;;;;;;5051581;28;20204;-71
2021/11/22 03:22:47;;;;;;;19.77;13.35;;;4.20;99.90;;;;;;5050409;28;20201;-71
2021/11/22 03:25:15;;;;;;;24.13;14.48;;;4.20;99.90;;;;;;5051401;28;20205;-71
2021/11/22 03:27:42;;;;;;;20.40;13.85;;;4.20;99.90;;;;;;5048983;28;20712;-71
2021/11/22 03:30:12;;;;;;;22.95;15.13;;;4.20;99.90;;;;;;5050228;28;20250;-71
2021/11/22 03:32:39;;;;;;;19.92;13.73;;;4.20;99.90;;;;;;5050561;28;20247;-71
2021/11/22 03:35:07;;;;;;;20.55;13.63;;;4.20;99.90;;;;;;5050707;28;20246;-71
2021/11/22 03:37:34;;;;;;;21.92;13.70;;;4.20;99.90;;;;;;5050846;28;20221;-71
2021/11/22 03:40:01;;;;;;;19.55;13.30;;;4.10;99.90;;;;;;5050379;28;20207;-71
2021/11/22 03:42:36;;;;;;;20.15;13.32;;;4.20;99.90;;;;;;5050126;28;20197;-71
2021/11/22 03:45:05;;;;;;;20.10;13.75;;;4.20;99.90;;;;;;5050757;28;20207;-71
2021/11/22 03:47:33;;;;;;;21.95;14.65;;;4.20;99.90;;;;;;5050530;28;20236;-71
2021/11/22 03:50:00;;;;;;;20.20;14.45;;;4.20;99.90;;;;;;5050735;28;20209;-71
2021/11/22 03:52:26;;;;;;;21.27;13.77;;;4.20;99.90;;;;;;5050097;28;20753;-71
2021/11/22 03:54:53;;;;;;;21.33;14.02;;;4.20;99.90;;;;;;5050661;28;20623;-71
2021/11/22 03:57:20;;;;;;;22.67;14.30;;;4.20;99.90;;;;;;5050341;28;20217;-71
2021/11/22 03:59:47;;;;;;;21.75;14.68;;;4.20;99.90;;;;;;5050905;28;20259;-71
2021/11/22 04:02:13;;;;;;;21.75;14.27;;;4.20;99.90;;;;;;5050065;28;20197;-71
2021/11/22 04:04:41;;;;;;;23.20;12.88;;;4.20;99.90;;;;;;5050585;28;20208;-71
2021/11/22 04:07:08;;;;;;;22.45;13.35;;;4.20;99.90;;;;;;5050601;28;20221;-71
2021/11/22 04:09:35;;;;;;;21.67;14.10;;;4.20;99.90;;;;;;5050529;28;20197;-71
2021/11/22 04:12:02;;;;;;;19.15;12.93;;;4.20;99.90;;;;;;5050111;28;20205;-71
2021/11/22 04:14:29;;;;;;;21.50;14.10;;;4.20;99.90;;;;;;5050444;28;20331;-71
2021/11/22 04:16:56;;;;;;;20.00;12.77;;;4.20;99.90;;;;;;5050310;28;20221;-71
2021/11/22 04:19:23;;;;;;;17.88;13.10;;;4.20;99.90;;;;;;5050831;28;20227;-71
2021/11/22 04:21:51;;;;;;;18.58;12.20;;;4.20;99.90;;;;;;5049830;28;20573;-71
2021/11/22 04:24:17;;;;;;;18.92;11.45;;;4.20;99.90;;;;;;5050531;28;20683;-70
2021/11/22 04:26:44;;;;;;;21.33;12.73;;;4.20;99.90;;;;;;5050270;28;20229;-71
2021/11/22 04:29:11;;;;;;;15.93;11.65;;;4.20;99.90;;;;;;5050446;28;20216;-71
2021/11/22 04:31:38;;;;;;;17.98;11.70;;;4.20;99.90;;;;;;5049646;28;20204;-72
2021/11/22 04:34:04;;;;;;;19.73;12.38;;;4.20;99.90;;;;;;5049945;28;20228;-72
2021/11/22 04:36:31;;;;;;;18.38;12.15;;;4.20;99.90;;;;;;5048970;28;20580;-73
2021/11/22 04:38:59;;;;;;;17.00;12.07;;;4.20;99.90;;;;;;5048979;28;20750;-73
2021/11/22 04:41:26;;;;;;;17.73;11.90;;;4.20;99.90;;;;;;5049146;28;20193;-72
2021/11/22 04:43:53;;;;;;;15.77;10.65;;;4.20;99.90;;;;;;5050000;28;20204;-73
2021/11/22 04:46:20;;;;;;;16.65;10.88;;;4.20;99.90;;;;;;5050691;28;20200;-73
2021/11/22 04:48:47;;;;;;;12.50;9.77;;;4.20;99.90;;;;;;5049358;28;20664;-73
2021/11/22 04:51:14;;;;;;;16.48;11.10;;;4.20;99.90;;;;;;5049353;28;20692;-72
2021/11/22 04:53:41;;;;;;;17.63;12.48;;;4.20;99.90;;;;;;5054027;28;20204;-71
2021/11/22 04:56:09;;;;;;;13.60;9.70;;;4.30;99.90;;;;;;5052887;28;20193;-71
2021/11/22 04:58:35;;;;;;;15.75;11.27;;;4.30;99.90;;;;;;5053385;28;20286;-72
2021/11/22 05:01:02;;;;;;;17.73;11.45;;;4.30;99.90;;;;;;5052306;28;20207;-72
2021/11/22 05:03:29;;;;;;;17.80;12.13;;;4.30;99.90;;;;;;5052414;28;20694;-72
2021/11/22 05:05:56;;;;;;;14.90;10.50;;;4.30;99.90;;;;;;5052198;28;20208;-71
2021/11/22 05:08:22;;;;;;;15.60;11.02;;;4.30;99.90;;;;;;5051971;28;20240;-71
2021/11/22 05:10:49;;;;;;;15.30;10.52;;;4.30;99.90;;;;;;5052256;28;20197;-71
2021/11/22 05:13:20;;;;;;;14.23;11.40;;;4.30;99.90;;;;;;5052035;28;20193;-71
2021/11/22 05:15:49;;;;;;;16.10;11.18;;;4.30;99.90;;;;;;5052106;28;20223;-72
2021/11/22 05:18:16;;;;;;;18.35;12.60;;;4.30;99.90;;;;;;5051960;28;20217;-71
2021/11/22 05:20:44;;;;;;;19.65;13.45;;;4.30;99.90;;;;;;5052117;28;20217;-71
2021/11/22 05:23:12;;;;;;;14.70;11.15;;;4.30;99.90;;;;;;5049482;28;20201;-71
2021/11/22 05:25:38;;;;;;;15.25;10.75;;;4.30;99.90;;;;;;5051958;28;20947;-72
2021/11/22 05:28:06;;;;;;;15.00;10.20;;;4.30;99.90;;;;;;5052343;28;20603;-72
2021/11/22 05:30:35;;;;;;;13.82;9.82;;;4.30;99.90;;;;;;5053032;28;20209;-72
2021/11/22 05:33:04;;;;;;;15.13;10.48;;;4.30;99.90;;;;;;5051751;28;20208;-71
2021/11/22 05:35:32;;;;;;;16.27;10.35;;;4.30;99.90;;;;;;5052729;28;20228;-71
2021/11/22 05:37:59;;;;;;;14.63;11.05;;;4.30;99.90;;;;;;5053174;28;20231;-71
2021/11/22 05:40:26;;;;;;;15.55;10.88;;;4.40;99.90;;;;;;5053162;28;20212;-71
2021/11/22 05:42:53;;;;;;;13.88;9.75;;;4.40;99.90;;;;;;5052476;28;20208;-72
2021/11/22 05:45:20;;;;;;;13.15;10.38;;;4.40;99.90;;;;;;5052869;28;20197;-71
2021/11/22 05:47:48;;;;;;;13.55;10.25;;;4.40;99.90;;;;;;5052807;28;20225;-71
2021/11/22 05:50:16;;;;;;;13.07;9.55;;;4.40;99.90;;;;;;5053082;28;20227;-71
2021/11/22 05:52:49;;;;;;;13.32;11.15;;;4.40;99.90;;;;;;5052168;28;20215;-72
2021/11/22 05:55:22;;;;;;;12.27;9.00;;;4.40;99.90;;;;;;5052853;28;20221;-72
2021/11/22 05:57:49;;;;;;;12.75;9.88;;;4.40;99.90;;;;;;5052650;28;20609;-71
2021/11/22 06:00:16;;;;;;;14.05;10.57;;;4.40;99.90;;;;;;5052864;28;20197;-72
2021/11/22 06:02:42;;;;;;;13.15;9.45;;;4.40;99.90;;;;;;5051859;28;20209;-71
2021/11/22 06:05:10;;;;;;;11.57;8.88;;;4.40;99.90;;;;;;5052475;28;20208;-70
2021/11/22 06:07:39;;;;;;;12.13;9.50;;;4.40;99.90;;;;;;5052340;28;20221;-70
2021/11/22 06:10:06;;;;;;;16.30;9.88;;;4.50;99.90;;;;;;5052513;28;20205;-71
2021/11/22 06:12:33;;;;;;;13.32;9.00;;;4.50;99.90;;;;;;5051929;28;20270;-71
2021/11/22 06:14:59;;;;;;;13.48;9.38;;;4.50;99.90;;;;;;5052652;28;20224;-70
2021/11/22 06:17:26;;;;;;;12.77;9.20;;;4.50;99.90;;;;;;5051992;28;20225;-71
2021/11/22 06:19:54;;;;;;;14.52;8.68;;;4.40;99.90;;;;;;5052684;28;20201;-71
2021/11/22 06:22:22;;;;;;;14.27;10.18;;;4.40;99.90;;;;;;5051566;28;20233;-71
2021/11/22 06:24:49;;;;;;;14.35;9.05;;;4.50;99.90;;;;;;5052530;28;20204;-71
2021/11/22 06:27:16;;;;;;;16.45;9.02;;;4.50;99.90;;;;;;5051779;28;20224;-71
2021/11/22 06:29:43;;;;;;;12.60;8.20;;;4.50;99.90;;;;;;5052160;28;20244;-71
2021/11/22 06:32:11;;;;;;;12.27;9.30;;;4.50;99.90;;;;;;5051583;28;20682;-71
2021/11/22 06:34:38;;;;;;;14.32;9.38;;;4.50;99.90;;;;;;5051920;28;20599;-71
2021/11/22 06:37:05;;;;;;;10.70;8.52;;;4.50;99.90;;;;;;5052229;28;20221;-70
2021/11/22 06:39:33;;;;;;;11.73;8.70;;;4.50;99.90;;;;;;5051727;28;20204;-71
2021/11/22 06:42:00;;;;;;;10.93;8.55;;;4.50;99.90;;;;;;5051807;28;20204;-71
2021/11/22 06:44:27;;;;;;;10.45;8.52;;;4.50;99.90;;;;;;5051600;28;20204;-71
2021/11/22 06:46:54;;;;;;;13.68;9.48;;;4.50;99.90;;;;;;5051990;28;20221;-70
2021/11/22 06:49:20;;;;;;;10.95;9.00;;;4.50;99.90;;;;;;5051921;28;20201;-71
2021/11/22 06:51:48;;;;;;;12.77;9.38;;;4.50;99.90;;;;;;5051620;28;20684;-71
2021/11/22 06:54:15;;;;;;;13.55;9.15;;;4.50;99.90;;;;;;5051906;28;20205;-71
2021/11/22 06:56:43;;;;;;;10.63;7.93;;;4.50;99.90;;;;;;5050384;28;20247;-71
2021/11/22 06:59:10;;;;;;;10.77;8.38;;;4.50;99.90;;;;;;5051000;28;20205;-71
2021/11/22 07:01:37;;;;;;;12.75;8.77;;;4.50;99.90;;;;;;5050438;28;20196;-72
2021/11/22 07:04:04;;;;;;;11.45;7.82;;;4.50;99.90;;;;;;5051496;28;20193;-71
2021/11/22 07:06:30;;;;;;;12.75;8.75;;;4.50;99.90;;;;;;5048922;28;20614;-72
2021/11/22 07:08:57;;;;;;;10.23;8.25;;;4.50;99.90;;;;;;5051306;28;20197;-71
2021/11/22 07:11:24;;;;;;;12.23;8.23;;;4.50;99.90;;;;;;5050129;28;20201;-71
2021/11/22 07:13:52;;;;;;;9.77;7.50;;;4.40;99.90;;;;;;5048283;28;20200;-72
2021/11/22 07:16:19;;;;;;;11.35;7.78;;;4.40;99.90;;;;;;5050533;28;20224;-71
2021/11/22 07:18:46;;;;;;;11.65;8.93;;;4.40;99.90;;;;;;5050323;28;20203;-72
2021/11/22 07:21:13;;;;;;;9.65;7.72;;;4.50;99.90;;;;;;5050403;28;20197;-72
2021/11/22 07:23:40;;;;;;;11.45;7.55;;;4.50;99.90;;;;;;5050232;28;20209;-72
2021/11/22 07:26:06;;;;;;;10.50;7.05;;;4.50;99.90;;;;;;5050813;28;20186;-71
2021/11/22 07:28:33;;;;;;;10.35;7.95;;;4.50;99.90;;;;;;5050006;28;20213;-72
2021/11/22 07:31:01;;;;;;;10.45;7.95;;;4.50;99.90;;;;;;5050023;28;20242;-72
2021/11/22 07:33:28;;;;;;;11.80;7.97;;;4.50;99.90;;;;;;5050324;28;20193;-72
2021/11/22 07:35:55;;;;;;;8.93;7.40;;;4.50;99.90;;;;;;5050306;28;20217;-72
2021/11/22 07:38:22;;;;;;;9.68;6.57;;;4.50;99.90;;;;;;5047538;28;20217;-71
2021/11/22 07:40:50;;;;;;;9.93;7.20;;;4.50;99.90;;;;;;5050130;28;20193;-71
2021/11/22 07:43:17;;;;;;;14.63;7.07;;;4.50;99.90;;;;;;5050716;28;20201;-71
2021/11/22 07:45:44;;;;;;;8.80;7.00;;;4.50;99.90;;;;;;5050451;28;20993;-71
2021/11/22 07:48:14;;;;;;;10.40;7.75;;;4.50;99.90;;;;;;5050688;28;20739;-71
2021/11/22 07:50:41;;;;;;;8.00;6.97;;;4.50;99.90;;;;;;5050347;28;20615;-71
2021/11/22 07:53:08;;;;;;;9.82;7.00;;;4.50;99.90;;;;;;5050177;28;20201;-72
2021/11/22 07:55:35;;;;;;;8.55;6.30;;;4.50;99.90;;;;;;5050316;28;20282;-72
2021/11/22 07:58:01;;;;;;;8.98;6.75;;;4.50;99.90;;;;;;5050363;28;20220;-73
2021/11/22 08:00:29;;;;;;;9.07;7.45;;;4.50;99.90;;;;;;5050543;28;20197;-72
2021/11/22 08:02:56;;;;;;;7.28;6.57;;;4.60;99.90;;;;;;5050133;28;20201;-73
2021/11/22 08:05:26;;;;;;;8.77;7.07;;;4.60;99.90;;;;;;5050451;28;20588;-72
2021/11/22 08:07:55;;;;;;;9.35;6.93;;;4.60;99.90;;;;;;5050653;28;20334;-73
2021/11/22 08:10:28;;;;;;;6.78;6.10;;;4.60;99.90;;;;;;5050564;28;20201;-73
2021/11/22 08:12:57;;;;;;;8.02;6.85;;;4.70;99.90;;;;;;5050321;28;20849;-73
2021/11/22 08:15:25;;;;;;;8.05;6.90;;;4.70;99.90;;;;;;5050070;28;20252;-72
2021/11/22 08:17:52;;;;;;;9.55;6.70;;;4.70;99.90;;;;;;5050334;28;20224;-72
2021/11/22 08:20:21;;;;;;;8.15;6.28;;;4.70;99.90;;;;;;5050366;28;20201;-73
2021/11/22 08:22:51;;;;;;;6.88;6.20;;;4.70;99.90;;;;;;5050105;28;20307;-72
2021/11/22 08:25:19;;;;;;;7.43;6.22;;;4.70;99.90;;;;;;5050201;28;20201;-73
2021/11/22 08:30:17;;;;;;;8.73;6.32;;;4.70;99.90;;;;;;5046499;28;20607;-68
2021/11/22 08:32:58;;;;;;;7.97;6.13;;;4.70;99.90;;;;;;5053588;28;20220;-68
2021/11/22 08:35:28;;;;;;;7.82;7.03;;;4.70;99.90;;;;;;5053773;28;20696;-67
2021/11/22 08:37:56;;;;;;;9.50;6.78;;;4.70;99.90;;;;;;5054101;28;20312;-68
2021/11/22 08:40:24;;;;;;;8.50;6.50;;;4.70;99.90;;;;;;5054280;28;20201;-68
2021/11/22 08:42:52;;;;;;;8.00;6.30;;;4.70;99.90;;;;;;5053843;28;20255;-69
2021/11/22 08:45:21;;;;;;;9.52;6.30;;;4.70;99.90;;;;;;5039470;28;20293;-68
2021/11/22 08:47:48;;;;;;;7.80;6.20;;;4.80;99.90;;;;;;5031755;28;20268;-67
2021/11/22 08:50:16;;;;;;;9.40;6.65;;;4.80;99.90;;;;;;5033297;28;20618;-66
2021/11/22 08:52:44;;;;;;;7.25;5.88;;;4.90;99.90;;;;;;5032619;28;20296;-66
2021/11/22 08:55:18;;;;;;;7.35;6.22;;;4.90;99.90;;;;;;5029331;28;20213;-69
2021/11/22 08:57:45;;;;;;;6.22;5.60;;;4.90;99.90;;;;;;5032969;28;20230;-67
2021/11/22 09:00:16;;;;;;;7.68;6.40;;;4.90;99.90;;;;;;5031012;28;20291;-68
2021/11/22 09:02:43;;;;;;;9.30;7.07;;;4.90;99.90;;;;;;5032100;28;20206;-68
2021/11/22 09:05:10;;;;;;;6.90;5.93;;;4.90;99.90;;;;;;5033206;28;20285;-67
2021/11/22 09:07:37;;;;;;;10.73;6.13;;;4.90;99.90;;;;;;5032250;28;20321;-67
2021/11/22 09:10:05;;;;;;;7.90;6.03;;;5.00;99.90;;;;;;5033284;28;20206;-67
2021/11/22 09:12:34;;;;;;;8.52;6.00;;;5.00;99.90;;;;;;5032033;28;20712;-67
2021/11/22 09:15:01;;;;;;;7.78;6.70;;;5.00;99.90;;;;;;5032649;28;20217;-68
2021/11/22 09:17:28;;;;;;;9.10;6.82;;;5.00;99.90;;;;;;5032814;28;20228;-68
2021/11/22 09:19:55;;;;;;;12.88;7.20;;;5.00;99.90;;;;;;5032431;28;20681;-68
2021/11/22 09:22:22;;;;;;;7.57;5.72;;;5.10;99.90;;;;;;5032034;28;20206;-67
2021/11/22 09:24:49;;;;;;;7.03;6.25;;;5.00;99.90;;;;;;5032287;28;20202;-68
2021/11/22 09:27:17;;;;;;;8.85;6.70;;;5.10;99.90;;;;;;5032927;28;20940;-68
2021/11/22 09:29:54;;;;;;;10.05;6.60;;;5.10;99.90;;;;;;5032039;28;20248;-68
2021/11/22 09:32:21;;;;;;;8.40;7.40;;;5.10;99.90;;;;;;5032196;28;20688;-68
2021/11/22 09:34:49;;;;;;;9.13;6.30;;;5.10;99.90;;;;;;5032558;28;20206;-68
2021/11/22 09:37:17;;;;;;;7.45;6.65;;;5.10;99.90;;;;;;5030952;28;20226;-68
2021/11/22 09:39:45;;;;;;;7.55;6.63;;;5.10;99.90;;;;;;5032257;28;20198;-67
2021/11/22 09:42:15;;;;;;;11.27;7.70;;;5.10;99.90;;;;;;5031398;28;20245;-68
2021/11/22 09:44:50;;;;;;;11.50;8.25;;;5.20;99.90;;;;;;5032193;28;20720;-68
2021/11/22 09:47:17;;;;;;;9.77;7.25;;;5.10;99.90;;;;;;5031839;28;20225;-67
2021/11/22 09:49:45;;;;;;;14.35;8.27;;;5.10;99.90;;;;;;5032318;28;20296;-68
2021/11/22 09:52:12;;;;;;;10.95;8.18;;;5.10;99.90;;;;;;5031151;28;20198;-67
2021/11/22 09:54:39;;;;;;;9.35;7.75;;;5.20;99.90;;;;;;5031786;28;20260;-67
2021/11/22 09:57:07;;;;;;;10.10;7.18;;;5.20;99.90;;;;;;5031993;28;20287;-68
2021/11/22 09:59:34;;;;;;;9.63;7.57;;;5.20;99.90;;;;;;5031719;28;20289;-67
2021/11/22 10:02:02;;;;;;;8.77;6.95;;;5.20;99.90;;;;;;5031546;28;20297;-68
2021/11/22 10:04:30;;;;;;;9.48;7.03;;;5.20;99.90;;;;;;5031855;28;20208;-68
2021/11/22 10:06:58;;;;;;;9.38;7.10;;;5.20;99.90;;;;;;5031272;28;20229;-67
2021/11/22 10:09:43;;;;;;;12.73;6.45;;;5.20;99.90;;;;;;5031666;28;20208;-68
2021/11/22 10:12:14;;;;;;;10.15;7.85;;;5.20;99.90;;;;;;5031246;28;20202;-68
2021/11/22 10:14:43;;;;;;;11.93;7.75;;;5.30;99.90;;;;;;5025268;28;20601;-68
2021/11/22 10:17:24;;;;;;;8.75;7.18;;;5.30;99.90;;;;;;5031422;28;20236;-67
2021/11/22 10:20:12;;;;;;;8.18;7.00;;;5.30;99.90;;;;;;5032252;28;20252;-67
2021/11/22 10:22:41;;;;;;;11.60;8.20;;;5.30;99.90;;;;;;5032784;28;20213;-67
2021/11/22 10:25:21;;;;;;;8.13;6.68;;;5.40;99.90;;;;;;5031964;28;20202;-68
2021/11/22 10:27:49;;;;;;;8.30;6.60;;;5.50;99.90;;;;;;5031520;28;20233;-67
2021/11/22 10:30:25;;;;;;;9.80;7.43;;;5.50;99.90;;;;;;5030901;28;20565;-68
2021/11/22 10:32:56;;;;;;;8.02;6.90;;;5.60;99.90;;;;;;5024805;28;20202;-66
2021/11/22 10:35:26;;;;;;;9.80;7.68;;;5.50;99.90;;;;;;5010735;28;20210;-65
2021/11/22 10:37:56;;;;;;;9.07;6.63;;;5.50;99.90;;;;;;5011063;28;20662;-65
2021/11/22 10:40:23;;;;;;;8.15;6.70;;;5.50;99.90;;;;;;5011223;28;20573;-66
2021/11/22 10:42:51;;;;;;;11.35;7.70;;;5.50;99.90;;;;;;5010172;28;20221;-66
2021/11/22 10:45:31;;;;;;;14.68;7.60;;;5.60;99.90;;;;;;5011251;28;20202;-66
2021/11/22 10:48:20;;;;;;;9.45;8.18;;;5.60;99.90;;;;;;5012205;28;20305;-68
2021/11/22 10:50:52;;;;;;;10.93;7.43;;;5.60;99.90;;;;;;5030171;28;20202;-66
2021/11/22 10:53:27;;;;;;;10.00;8.18;;;5.70;99.90;;;;;;5031780;28;20201;-67
2021/11/22 10:55:54;;;;;;;30.35;20.20;;;5.70;99.90;;;;;;5031295;28;20232;-68
2021/11/22 10:58:51;;;;;;;11.77;9.05;;;5.70;99.90;;;;;;5030781;28;20567;-68
2021/11/22 11:01:39;;;;;;;12.25;9.23;;;5.70;99.90;;;;;;5019329;28;20722;-67
2021/11/22 11:04:16;;;;;;;10.30;8.73;;;5.70;99.90;;;;;;5031421;28;20212;-67
2021/11/22 11:07:00;;;;;;;9.07;7.10;;;5.80;99.90;;;;;;5030984;28;20720;-68
2021/11/22 11:09:31;;;;;;;10.88;7.72;;;5.80;99.90;;;;;;5030163;28;20213;-68
2021/11/22 11:12:05;;;;;;;10.88;8.60;;;5.80;99.90;;;;;;5030895;28;20626;-67
2021/11/22 11:14:33;;;;;;;12.85;8.00;;;5.80;99.90;;;;;;5030569;28;20582;-68
2021/11/22 11:17:28;;;;;;;13.05;8.93;;;5.80;99.90;;;;;;5030030;28;20234;-68
2021/11/22 11:19:58;;;;;;;9.60;8.60;;;5.80;99.90;;;;;;5030014;28;20677;-68
2021/11/22 11:22:26;;;;;;;11.30;7.20;;;5.80;99.90;;;;;;5029982;28;20583;-68
2021/11/22 11:24:56;;;;;;;9.23;7.63;;;5.80;99.90;;;;;;5030503;28;20206;-68
2021/11/22 11:27:23;;;;;;;9.70;8.35;;;5.80;99.90;;;;;;5029531;28;20220;-68
2021/11/22 11:29:51;;;;;;;13.65;7.70;;;5.80;99.90;;;;;;5030148;28;20225;-68
2021/11/22 11:32:18;;;;;;;9.48;7.25;;;5.80;99.90;;;;;;5030011;28;20208;-68
2021/11/22 11:34:50;;;;;;;10.30;7.32;;;5.80;99.90;;;;;;5029772;28;20243;-67
2021/11/22 11:38:02;;;;;;;9.50;7.15;;;5.70;99.90;;;;;;5030052;28;20252;-68
2021/11/22 11:40:38;;;;;;;8.05;6.85;;;5.80;99.90;;;;;;5030832;28;20205;-68
2021/11/22 11:43:49;;;;;;;7.05;6.30;;;5.70;99.90;;;;;;5029898;28;20201;-68
2021/11/22 11:46:24;;;;;;;8.65;6.35;;;5.70;99.90;;;;;;5029967;28;20228;-68
2021/11/22 11:48:58;;;;;;;11.77;7.28;;;5.60;99.90;;;;;;5029688;28;20209;-68
2021/11/22 11:51:32;;;;;;;12.98;6.90;;;5.60;99.90;;;;;;5029288;28;20201;-68
2021/11/22 11:54:14;;;;;;;7.80;6.70;;;5.50;99.90;;;;;;5029963;28;20220;-68
2021/11/22 11:56:51;;;;;;;8.20;6.82;;;5.50;99.90;;;;;;5026455;28;20589;-68
2021/11/22 11:59:22;;;;;;;8.05;7.25;;;5.50;99.90;;;;;;5026918;28;20200;-68
2021/11/22 12:01:58;;;;;;;7.43;5.80;;;5.50;99.90;;;;;;5028605;28;20255;-67
2021/11/22 12:04:26;;;;;;;8.75;6.18;;;5.50;99.90;;;;;;5029465;28;20209;-67
2021/11/22 12:06:55;;;;;;;7.00;6.32;;;5.50;99.90;;;;;;5029544;28;20717;-67
2021/11/22 12:09:32;;;;;;;9.38;7.57;;;5.50;99.90;;;;;;5029109;28;20241;-68
2021/11/22 12:12:01;;;;;;;8.15;6.30;;;5.50;99.90;;;;;;5029030;28;20198;-67
2021/11/22 12:14:54;;;;;;;9.75;6.90;;;5.50;99.90;;;;;;5030239;28;20205;-67
2021/11/22 12:17:59;;;;;;;10.52;6.78;;;5.50;99.90;;;;;;5030360;28;20609;-68
2021/11/22 12:20:48;;;;;;;10.00;7.25;;;5.50;99.90;;;;;;5030320;28;20547;-68
2021/11/22 12:23:18;;;;;;;10.00;7.05;;;5.50;99.90;;;;;;5030496;28;20202;-68
2021/11/22 12:25:49;;;;;;;8.10;6.50;;;5.50;99.90;;;;;;5030290;28;20202;-68
2021/11/22 12:28:50;;;;;;;10.55;6.90;;;5.40;99.90;;;;;;5030401;28;20602;-67
2021/11/22 12:31:25;;;;;;;13.63;8.25;;;5.40;99.90;;;;;;5029695;28;20201;-68
2021/11/22 12:34:00;;;;;;;7.03;5.97;;;5.40;99.90;;;;;;5030655;28;20205;-67
2021/11/22 12:36:48;;;;;;;8.32;6.35;;;5.40;99.90;;;;;;5030045;28;20232;-68
2021/11/22 12:39:26;;;;;;;7.45;5.85;;;5.40;99.90;;;;;;5027420;28;20316;-68
2021/11/22 12:42:18;;;;;;;6.90;5.82;;;5.40;99.90;;;;;;5029963;28;20213;-68
2021/11/22 12:45:00;;;;;;;9.02;6.00;;;5.40;99.90;;;;;;5030398;28;20202;-68
2021/11/22 12:47:28;;;;;;;9.10;5.85;;;5.40;99.90;;;;;;5029686;28;20240;-68
2021/11/22 12:50:17;;;;;;;8.13;5.75;;;5.40;99.90;;;;;;5030412;28;20755;-68
2021/11/22 12:53:04;;;;;;;8.32;5.85;;;5.30;99.90;;;;;;5029698;28;20300;-67
2021/11/22 12:55:38;;;;;;;8.85;6.18;;;5.40;99.90;;;;;;5030212;28;20201;-67
2021/11/22 12:58:09;;;;;;;8.18;5.70;;;5.40;99.90;;;;;;5030050;28;20244;-67
2021/11/22 13:00:37;;;;;;;8.30;6.22;;;5.40;99.90;;;;;;5030310;28;20209;-68